PWSweather.com
Personal Weather Stations
Station Observations
KMAMEDFI2
Medfield, MA 02052

Medfield, MA 02052

Lat: 42.1900822, Lon: -71.3296889

Elevation: 138

Station Type: Rainwise WS MK-III

http://www.medfieldweather.com

High Low Average
Temperature 12.4°F-10.9°C -1.3°F-18.5°C 6.3°F-14.3°C
Dew Point 4.4°F-15.3°C -3.3°F-19.6°C 0.7°F-17.4°C
Winds 13.8 mph 22.2 kmh Calm Calm 3.0 mph W4.8 kmh W
Wind Gusts 16.1 mph25.9 kmh -- 4.0 mph6.4 kmh
Humidity 92% 51% 79%
Pressure 31.03 in1050.8 mb 29.86 in1011.2 mb -
Precipitation 0.00 in0.0 mm - -
Hour Temp Dew Point Humidity Winds Wind Gusts Pressure Precip Precip Rate Daily Precip Total
12:00 AM 0.7°F-17.4°C -1.3°F-18.5°C 91% Calm Calm -- 29.86 in1011.2 mb - 0.00 in0.0 mm 0.00 in0.0 mm
12:10 AM 0.6°F-17.4°C -1.4°F-18.6°C 91% Calm Calm -- 29.86 in1011.2 mb - 0.00 in0.0 mm 0.00 in0.0 mm
12:20 AM 0.7°F-17.4°C -1.3°F-18.5°C 91% Calm Calm -- 29.86 in1011.2 mb - 0.00 in0.0 mm 0.00 in0.0 mm
12:30 AM 0.2°F-17.7°C -1.8°F-18.8°C 91% Calm Calm -- 29.87 in1011.5 mb - 0.00 in0.0 mm 0.00 in0.0 mm
12:40 AM 0.7°F-17.4°C -1.3°F-18.5°C 91% Calm Calm -- 29.86 in1011.2 mb - 0.00 in0.0 mm 0.00 in0.0 mm
12:50 AM 1.1°F-17.2°C -0.9°F-18.3°C 91% Calm Calm -- 29.86 in1011.2 mb - 0.00 in0.0 mm 0.00 in0.0 mm
01:00 AM 1.0°F-17.2°C -1.0°F-18.3°C 91% Calm Calm -- 29.87 in1011.5 mb - 0.00 in0.0 mm 0.00 in0.0 mm
01:10 AM 1.7°F-16.8°C -0.4°F-18.0°C 91% Calm Calm -- 29.87 in1011.5 mb - 0.00 in0.0 mm 0.00 in0.0 mm
01:20 AM 2.4°F-16.4°C 0.3°F-17.6°C 91% Calm Calm -- 29.88 in1011.9 mb - 0.00 in0.0 mm 0.00 in0.0 mm
01:30 AM 2.2°F-16.6°C 0.2°F-17.7°C 91% Calm Calm -- 29.88 in1011.9 mb - 0.00 in0.0 mm 0.00 in0.0 mm
01:40 AM 1.6°F-16.9°C -0.5°F-18.1°C 91% Calm Calm -- 29.89 in1012.2 mb - 0.00 in0.0 mm 0.00 in0.0 mm
01:50 AM 1.7°F-16.8°C -0.4°F-18.0°C 91% Calm Calm -- 29.89 in1012.2 mb - 0.00 in0.0 mm 0.00 in0.0 mm
02:00 AM 2.2°F-16.6°C 0.2°F-17.7°C 91% Calm Calm -- 29.89 in1012.2 mb - 0.00 in0.0 mm 0.00 in0.0 mm
02:10 AM 3.3°F-15.9°C 1.3°F-17.1°C 91% Calm Calm -- 29.90 in1012.5 mb - 0.00 in0.0 mm 0.00 in0.0 mm
02:20 AM 3.3°F-15.9°C 1.3°F-17.1°C 91% Calm Calm -- 29.90 in1012.5 mb - 0.00 in0.0 mm 0.00 in0.0 mm
02:30 AM 3.6°F-15.8°C 1.6°F-16.9°C 91% Calm Calm -- 29.91 in1012.9 mb - 0.00 in0.0 mm 0.00 in0.0 mm
02:40 AM 3.9°F-15.6°C 1.8°F-16.8°C 91% Calm Calm -- 29.91 in1012.9 mb - 0.00 in0.0 mm 0.00 in0.0 mm
02:50 AM 4.0°F-15.6°C 2.2°F-16.6°C 92% Calm Calm -- 29.91 in1012.9 mb - 0.00 in0.0 mm 0.00 in0.0 mm
03:00 AM 4.2°F-15.4°C 2.3°F-16.5°C 92% 1.2 mph SW1.9 kmh SW 1.2 mph1.9 kmh 29.91 in1012.9 mb - 0.00 in0.0 mm 0.00 in0.0 mm
03:10 AM 3.9°F-15.6°C 1.9°F-16.7°C 91% Calm Calm -- 29.91 in1012.9 mb - 0.00 in0.0 mm 0.00 in0.0 mm
03:20 AM 3.2°F-16.0°C 1.1°F-17.2°C 91% Calm Calm -- 29.93 in1013.5 mb - 0.00 in0.0 mm 0.00 in0.0 mm
03:30 AM 3.1°F-16.1°C 1.1°F-17.2°C 91% Calm Calm -- 29.93 in1013.5 mb - 0.00 in0.0 mm 0.00 in0.0 mm
03:40 AM 3.3°F-15.9°C 1.2°F-17.1°C 91% Calm Calm -- 29.93 in1013.5 mb - 0.00 in0.0 mm 0.00 in0.0 mm
03:50 AM 2.7°F-16.3°C 0.6°F-17.4°C 91% Calm Calm -- 29.94 in1013.9 mb - 0.00 in0.0 mm 0.00 in0.0 mm
04:00 AM 2.2°F-16.6°C 0.2°F-17.7°C 91% Calm Calm -- 29.94 in1013.9 mb - 0.00 in0.0 mm 0.00 in0.0 mm
04:10 AM 1.3°F-17.1°C -0.7°F-18.2°C 91% Calm Calm -- 29.95 in1014.2 mb - 0.00 in0.0 mm 0.00 in0.0 mm
04:20 AM 0.3°F-17.6°C -1.7°F-18.7°C 91% Calm Calm -- 29.96 in1014.6 mb - 0.00 in0.0 mm 0.00 in0.0 mm
04:30 AM -0.5°F-18.1°C -2.5°F-19.2°C 91% Calm Calm -- 29.96 in1014.6 mb - 0.00 in0.0 mm 0.00 in0.0 mm
04:40 AM -1.1°F-18.4°C -3.1°F-19.5°C 91% Calm Calm -- 29.97 in1014.9 mb - 0.00 in0.0 mm 0.00 in0.0 mm
04:50 AM -1.1°F-18.4°C -3.1°F-19.5°C 91% Calm Calm -- 29.97 in1014.9 mb - 0.00 in0.0 mm 0.00 in0.0 mm
05:00 AM -0.9°F-18.3°C -2.9°F-19.4°C 91% Calm Calm -- 29.98 in1015.2 mb - 0.00 in0.0 mm 0.00 in0.0 mm
05:10 AM -0.9°F-18.3°C -2.9°F-19.4°C 91% Calm Calm -- 29.98 in1015.2 mb - 0.00 in0.0 mm 0.00 in0.0 mm
05:20 AM -1.3°F-18.5°C -3.3°F-19.6°C 91% Calm Calm -- 29.98 in1015.2 mb - 0.00 in0.0 mm 0.00 in0.0 mm
05:30 AM -0.7°F-18.2°C -2.7°F-19.3°C 91% Calm Calm -- 29.98 in1015.2 mb - 0.00 in0.0 mm 0.00 in0.0 mm
05:40 AM 1.1°F-17.2°C -0.9°F-18.3°C 91% 2.3 mph WNW3.7 kmh WNW 2.3 mph3.7 kmh 29.99 in1015.6 mb - 0.00 in0.0 mm 0.00 in0.0 mm
05:50 AM 3.0°F-16.1°C 0.9°F-17.3°C 91% 1.2 mph NNW1.9 kmh NNW 3.5 mph5.6 kmh 29.99 in1015.6 mb - 0.00 in0.0 mm 0.00 in0.0 mm
06:00 AM 4.2°F-15.4°C 2.4°F-16.4°C 92% 2.3 mph W3.7 kmh W 2.3 mph3.7 kmh 30.01 in1016.3 mb - 0.00 in0.0 mm 0.00 in0.0 mm
06:10 AM 4.7°F-15.2°C 2.9°F-16.2°C 92% 2.3 mph WSW3.7 kmh WSW 2.3 mph3.7 kmh 30.01 in1016.3 mb - 0.00 in0.0 mm 0.00 in0.0 mm
06:20 AM 4.4°F-15.3°C 2.6°F-16.3°C 92% Calm Calm -- 30.01 in1016.3 mb - 0.00 in0.0 mm 0.00 in0.0 mm
06:30 AM 4.3°F-15.4°C 2.5°F-16.4°C 92% 1.2 mph WNW1.9 kmh WNW 1.2 mph1.9 kmh 30.02 in1016.6 mb - 0.00 in0.0 mm 0.00 in0.0 mm
06:40 AM 4.1°F-15.5°C 2.3°F-16.5°C 92% 1.2 mph WSW1.9 kmh WSW 2.3 mph3.7 kmh 30.02 in1016.6 mb - 0.00 in0.0 mm 0.00 in0.0 mm
06:50 AM 4.2°F-15.4°C 2.4°F-16.4°C 92% 2.3 mph NW3.7 kmh NW 2.3 mph3.7 kmh 30.02 in1016.6 mb - 0.00 in0.0 mm 0.00 in0.0 mm
07:00 AM 4.8°F-15.1°C 3.0°F-16.1°C 92% 3.5 mph WSW5.6 kmh WSW 5.8 mph9.3 kmh 30.02 in1016.6 mb - 0.00 in0.0 mm 0.00 in0.0 mm
07:10 AM 4.9°F-15.1°C 3.1°F-16.1°C 92% 2.3 mph WSW3.7 kmh WSW 2.3 mph3.7 kmh 30.02 in1016.6 mb - 0.00 in0.0 mm 0.00 in0.0 mm
07:20 AM 4.8°F-15.1°C 3.0°F-16.1°C 92% 2.3 mph WSW3.7 kmh WSW 2.3 mph3.7 kmh 30.04 in1017.3 mb - 0.00 in0.0 mm 0.00 in0.0 mm
07:30 AM 4.3°F-15.4°C 2.5°F-16.4°C 92% 1.2 mph WNW1.9 kmh WNW 2.3 mph3.7 kmh 30.05 in1017.6 mb - 0.00 in0.0 mm 0.00 in0.0 mm
07:40 AM 4.2°F-15.4°C 2.4°F-16.4°C 92% 2.3 mph WNW3.7 kmh WNW 5.8 mph9.3 kmh 30.04 in1017.3 mb - 0.00 in0.0 mm 0.00 in0.0 mm
07:50 AM 4.8°F-15.1°C 3.0°F-16.1°C 92% 2.3 mph SW3.7 kmh SW 2.3 mph3.7 kmh 30.04 in1017.3 mb - 0.00 in0.0 mm 0.00 in0.0 mm
08:00 AM 5.1°F-14.9°C 3.3°F-15.9°C 92% 2.3 mph W3.7 kmh W 8.1 mph13.0 kmh 30.05 in1017.6 mb - 0.00 in0.0 mm 0.00 in0.0 mm
08:10 AM 5.6°F-14.7°C 3.8°F-15.7°C 92% 3.5 mph WSW5.6 kmh WSW 5.8 mph9.3 kmh 30.04 in1017.3 mb - 0.00 in0.0 mm 0.00 in0.0 mm
08:20 AM 5.8°F-14.6°C 4.0°F-15.6°C 92% 4.6 mph NW7.4 kmh NW 5.8 mph9.3 kmh 30.04 in1017.3 mb - 0.00 in0.0 mm 0.00 in0.0 mm
08:30 AM 6.3°F-14.3°C 4.3°F-15.4°C 91% 2.3 mph W3.7 kmh W 2.3 mph3.7 kmh 30.05 in1017.6 mb - 0.00 in0.0 mm 0.00 in0.0 mm
08:40 AM 7.0°F-13.9°C 4.4°F-15.3°C 89% 4.6 mph W7.4 kmh W 5.8 mph9.3 kmh 30.05 in1017.6 mb - 0.00 in0.0 mm 0.00 in0.0 mm
08:50 AM 7.1°F-13.8°C 3.8°F-15.7°C 86% 3.5 mph N5.6 kmh N 2.3 mph3.7 kmh 30.05 in1017.6 mb - 0.00 in0.0 mm 0.00 in0.0 mm
09:00 AM 7.3°F-13.7°C 3.7°F-15.7°C 85% 3.5 mph W5.6 kmh W 6.9 mph11.1 kmh 30.05 in1017.6 mb - 0.00 in0.0 mm 0.00 in0.0 mm
09:10 AM 7.8°F-13.4°C 3.4°F-15.9°C 82% 3.5 mph NW5.6 kmh NW 9.2 mph14.8 kmh 30.06 in1017.9 mb - 0.00 in0.0 mm 0.00 in0.0 mm
09:20 AM 8.1°F-13.3°C 2.7°F-16.3°C 78% 2.3 mph WNW3.7 kmh WNW 5.8 mph9.3 kmh 30.06 in1017.9 mb - 0.00 in0.0 mm 0.00 in0.0 mm
09:30 AM 8.1°F-13.3°C 2.1°F-16.6°C 76% 5.8 mph NW9.3 kmh NW 9.2 mph14.8 kmh 30.07 in1018.3 mb - 0.00 in0.0 mm 0.00 in0.0 mm
09:40 AM 8.2°F-13.2°C 0.7°F-17.4°C 71% 8.1 mph W13.0 kmh W 11.5 mph18.5 kmh 30.07 in1018.3 mb - 0.00 in0.0 mm 0.00 in0.0 mm
09:50 AM 8.3°F-13.2°C 0.5°F-17.5°C 70% 8.1 mph NW13.0 kmh NW 12.7 mph20.4 kmh 30.07 in1018.3 mb - 0.00 in0.0 mm 0.00 in0.0 mm
10:00 AM 8.8°F-12.9°C 0.4°F-17.6°C 68% 4.6 mph WNW7.4 kmh WNW 8.1 mph13.0 kmh 30.07 in1018.3 mb - 0.00 in0.0 mm 0.00 in0.0 mm
10:10 AM 8.9°F-12.8°C -0.5°F-18.1°C 65% 8.1 mph W13.0 kmh W 13.8 mph22.2 kmh 30.07 in1018.3 mb - 0.00 in0.0 mm 0.00 in0.0 mm
10:20 AM 9.6°F-12.4°C -0.8°F-18.2°C 62% 11.5 mph NW18.5 kmh NW 16.1 mph25.9 kmh 30.07 in1018.3 mb - 0.00 in0.0 mm 0.00 in0.0 mm
10:30 AM 10.1°F-12.2°C 0.0°F-17.8°C 63% 8.1 mph WNW13.0 kmh WNW 13.8 mph22.2 kmh 30.07 in1018.3 mb - 0.00 in0.0 mm 0.00 in0.0 mm
10:40 AM 10.6°F-11.9°C 0.1°F-17.7°C 62% 5.8 mph WSW9.3 kmh WSW 10.4 mph16.7 kmh 30.07 in1018.3 mb - 0.00 in0.0 mm 0.00 in0.0 mm
10:50 AM 10.9°F-11.7°C -1.0°F-18.3°C 58% 9.2 mph W14.8 kmh W 13.8 mph22.2 kmh 30.07 in1018.3 mb - 0.00 in0.0 mm 0.00 in0.0 mm
11:00 AM 11.1°F-11.6°C -1.5°F-18.6°C 56% 6.9 mph W11.1 kmh W 8.1 mph13.0 kmh 30.07 in1018.3 mb - 0.00 in0.0 mm 0.00 in0.0 mm
11:10 AM 11.6°F-11.3°C -1.5°F-18.6°C 55% 4.6 mph WSW7.4 kmh WSW 12.7 mph20.4 kmh 30.07 in1018.3 mb - 0.00 in0.0 mm 0.00 in0.0 mm
11:20 AM 11.6°F-11.3°C -1.8°F-18.8°C 54% 6.9 mph W11.1 kmh W 8.1 mph13.0 kmh 30.07 in1018.3 mb - 0.00 in0.0 mm 0.00 in0.0 mm
11:30 AM 12.1°F-11.1°C -2.2°F-19.0°C 52% 6.9 mph WNW11.1 kmh WNW 16.1 mph25.9 kmh 30.07 in1018.3 mb - 0.00 in0.0 mm 0.00 in0.0 mm
11:40 AM 11.4°F-11.4°C -2.8°F-19.3°C 52% 10.4 mph WSW16.7 kmh WSW 12.7 mph20.4 kmh 30.07 in1018.3 mb - 0.00 in0.0 mm 0.00 in0.0 mm
11:50 AM 11.3°F-11.5°C -2.5°F-19.2°C 53% 8.1 mph W13.0 kmh W 9.2 mph14.8 kmh 30.06 in1017.9 mb - 0.00 in0.0 mm 0.00 in0.0 mm
12:00 PM 11.8°F-11.2°C -2.1°F-18.9°C 53% 8.1 mph NW13.0 kmh NW 8.1 mph13.0 kmh 30.06 in1017.9 mb - 0.00 in0.0 mm 0.00 in0.0 mm
12:10 PM 12.4°F-10.9°C -2.3°F-19.1°C 51% 6.9 mph NNW11.1 kmh NNW 8.1 mph13.0 kmh 30.08 in1018.6 mb - 0.00 in0.0 mm 0.00 in0.0 mm
12:20 PM 12.2°F-11.0°C 0.2°F-17.7°C 58% 3.5 mph NW5.6 kmh NW 2.3 mph3.7 kmh 30.35 in1027.8 mb - 0.00 in0.0 mm 0.00 in0.0 mm
12:30 PM 11.9°F-11.2°C 0.3°F-17.6°C 59% 5.8 mph NW9.3 kmh NW 6.9 mph11.1 kmh 30.46 in1031.5 mb - 0.00 in0.0 mm 0.00 in0.0 mm
12:40 PM 11.9°F-11.2°C 0.7°F-17.4°C 60% 4.6 mph WSW7.4 kmh WSW 9.2 mph14.8 kmh 30.48 in1032.2 mb - 0.00 in0.0 mm 0.00 in0.0 mm
12:50 PM 11.8°F-11.2°C 0.2°F-17.7°C 59% 11.5 mph WSW18.5 kmh WSW 10.4 mph16.7 kmh 30.48 in1032.2 mb - 0.00 in0.0 mm 0.00 in0.0 mm
01:00 PM 11.6°F-11.3°C 0.0°F-17.8°C 59% 8.1 mph WSW13.0 kmh WSW 8.1 mph13.0 kmh 30.46 in1031.5 mb - 0.00 in0.0 mm 0.00 in0.0 mm
01:10 PM 11.8°F-11.2°C -0.2°F-17.9°C 58% 2.3 mph NW3.7 kmh NW 8.1 mph13.0 kmh 30.46 in1031.5 mb - 0.00 in0.0 mm 0.00 in0.0 mm
01:20 PM 12.1°F-11.1°C 0.5°F-17.5°C 59% 8.1 mph NW13.0 kmh NW 11.5 mph18.5 kmh 30.47 in1031.8 mb - 0.00 in0.0 mm 0.00 in0.0 mm
01:30 PM 11.8°F-11.2°C 0.2°F-17.7°C 59% 4.6 mph SW7.4 kmh SW 3.5 mph5.6 kmh 30.48 in1032.2 mb - 0.00 in0.0 mm 0.00 in0.0 mm
01:40 PM 11.9°F-11.2°C 0.3°F-17.6°C 59% 2.3 mph NNE3.7 kmh NNE 1.2 mph1.9 kmh 30.49 in1032.5 mb - 0.00 in0.0 mm 0.00 in0.0 mm
01:50 PM 11.4°F-11.4°C 0.2°F-17.7°C 60% 5.8 mph WSW9.3 kmh WSW 9.2 mph14.8 kmh 30.52 in1033.5 mb - 0.00 in0.0 mm 0.00 in0.0 mm
02:00 PM 11.1°F-11.6°C 0.6°F-17.4°C 62% 10.4 mph W16.7 kmh W 11.5 mph18.5 kmh 30.55 in1034.5 mb - 0.00 in0.0 mm 0.00 in0.0 mm
02:10 PM 11.2°F-11.6°C 1.0°F-17.2°C 63% 6.9 mph WSW11.1 kmh WSW 11.5 mph18.5 kmh 30.56 in1034.9 mb - 0.00 in0.0 mm 0.00 in0.0 mm
02:20 PM 11.1°F-11.6°C 0.9°F-17.3°C 63% 10.4 mph W16.7 kmh W 8.1 mph13.0 kmh 30.57 in1035.2 mb - 0.00 in0.0 mm 0.00 in0.0 mm
02:30 PM 11.1°F-11.6°C 1.6°F-16.9°C 65% 1.2 mph WSW1.9 kmh WSW 1.2 mph1.9 kmh 30.60 in1036.2 mb - 0.00 in0.0 mm 0.00 in0.0 mm
02:40 PM 10.9°F-11.7°C 0.4°F-17.6°C 62% 2.3 mph NW3.7 kmh NW 1.2 mph1.9 kmh 30.62 in1036.9 mb - 0.00 in0.0 mm 0.00 in0.0 mm
02:50 PM 10.9°F-11.7°C 0.8°F-17.3°C 63% 3.5 mph WSW5.6 kmh WSW 2.3 mph3.7 kmh 30.64 in1037.6 mb - 0.00 in0.0 mm 0.00 in0.0 mm
03:00 PM 10.9°F-11.7°C 1.1°F-17.2°C 64% 2.3 mph NW3.7 kmh NW 2.3 mph3.7 kmh 30.66 in1038.3 mb - 0.00 in0.0 mm 0.00 in0.0 mm
03:10 PM 10.8°F-11.8°C 0.3°F-17.6°C 62% 13.8 mph SW22.2 kmh SW 13.8 mph22.2 kmh 30.67 in1038.6 mb - 0.00 in0.0 mm 0.00 in0.0 mm
03:20 PM 10.7°F-11.8°C 0.6°F-17.4°C 63% 6.9 mph WSW11.1 kmh WSW 6.9 mph11.1 kmh 30.68 in1038.9 mb - 0.00 in0.0 mm 0.00 in0.0 mm
03:30 PM 10.5°F-11.9°C 1.0°F-17.2°C 65% 4.6 mph NW7.4 kmh NW 6.9 mph11.1 kmh 30.71 in1040.0 mb - 0.00 in0.0 mm 0.00 in0.0 mm
03:40 PM 10.4°F-12.0°C 1.6°F-16.9°C 67% 8.1 mph NNW13.0 kmh NNW 9.2 mph14.8 kmh 30.72 in1040.3 mb - 0.00 in0.0 mm 0.00 in0.0 mm
03:50 PM 10.3°F-12.1°C 1.5°F-16.9°C 67% 3.5 mph N5.6 kmh N 3.5 mph5.6 kmh 30.74 in1041.0 mb - 0.00 in0.0 mm 0.00 in0.0 mm
04:00 PM 10.2°F-12.1°C 2.4°F-16.4°C 70% 2.3 mph W3.7 kmh W 1.2 mph1.9 kmh 30.76 in1041.7 mb - 0.00 in0.0 mm 0.00 in0.0 mm
04:10 PM 9.8°F-12.3°C 2.3°F-16.5°C 71% 5.8 mph WSW9.3 kmh WSW 5.8 mph9.3 kmh 30.78 in1042.3 mb - 0.00 in0.0 mm 0.00 in0.0 mm
04:20 PM 9.4°F-12.6°C 1.9°F-16.7°C 71% 12.7 mph SW20.4 kmh SW 11.5 mph18.5 kmh 30.80 in1043.0 mb - 0.00 in0.0 mm 0.00 in0.0 mm
04:30 PM 9.1°F-12.7°C 2.2°F-16.6°C 73% 5.8 mph SW9.3 kmh SW 5.8 mph9.3 kmh 30.82 in1043.7 mb - 0.00 in0.0 mm 0.00 in0.0 mm
04:40 PM 8.7°F-12.9°C 1.5°F-16.9°C 72% 2.3 mph NW3.7 kmh NW 1.2 mph1.9 kmh 30.84 in1044.4 mb - 0.00 in0.0 mm 0.00 in0.0 mm
04:50 PM 8.2°F-13.2°C 1.6°F-16.9°C 74% 1.2 mph SW1.9 kmh SW 1.2 mph1.9 kmh 30.85 in1044.7 mb - 0.00 in0.0 mm 0.00 in0.0 mm
05:00 PM 7.7°F-13.5°C 1.7°F-16.8°C 76% 6.9 mph WSW11.1 kmh WSW 6.9 mph11.1 kmh 30.87 in1045.4 mb - 0.00 in0.0 mm 0.00 in0.0 mm
05:10 PM 7.4°F-13.7°C 1.7°F-16.8°C 77% 11.5 mph SW18.5 kmh SW 11.5 mph18.5 kmh 30.89 in1046.1 mb - 0.00 in0.0 mm 0.00 in0.0 mm
05:20 PM 6.9°F-13.9°C 1.8°F-16.8°C 79% 2.3 mph WNW3.7 kmh WNW 2.3 mph3.7 kmh 30.91 in1046.7 mb - 0.00 in0.0 mm 0.00 in0.0 mm
05:30 PM 6.6°F-14.1°C 2.0°F-16.7°C 81% 3.5 mph W5.6 kmh W 2.3 mph3.7 kmh 30.93 in1047.4 mb - 0.00 in0.0 mm 0.00 in0.0 mm
05:40 PM 6.3°F-14.3°C 2.3°F-16.5°C 83% 5.8 mph WNW9.3 kmh WNW 5.8 mph9.3 kmh 30.94 in1047.7 mb - 0.00 in0.0 mm 0.00 in0.0 mm
05:50 PM 5.8°F-14.6°C 2.0°F-16.7°C 84% 3.5 mph WSW5.6 kmh WSW 3.5 mph5.6 kmh 30.96 in1048.4 mb - 0.00 in0.0 mm 0.00 in0.0 mm
06:00 PM 5.3°F-14.8°C 1.8°F-16.8°C 85% 1.2 mph W1.9 kmh W 1.2 mph1.9 kmh 30.97 in1048.8 mb - 0.00 in0.0 mm 0.00 in0.0 mm
06:10 PM 4.9°F-15.1°C 1.9°F-16.7°C 87% 1.2 mph W1.9 kmh W 1.2 mph1.9 kmh 30.99 in1049.4 mb - 0.00 in0.0 mm 0.00 in0.0 mm
06:20 PM 4.8°F-15.1°C 2.0°F-16.7°C 88% 2.3 mph WNW3.7 kmh WNW 1.2 mph1.9 kmh 31.00 in1049.8 mb - 0.00 in0.0 mm 0.00 in0.0 mm
06:30 PM 4.3°F-15.4°C 1.8°F-16.8°C 89% 3.5 mph W5.6 kmh W 2.3 mph3.7 kmh 31.01 in1050.1 mb - 0.00 in0.0 mm 0.00 in0.0 mm
06:40 PM 3.6°F-15.8°C 1.4°F-17.0°C 90% Calm Calm 1.2 mph1.9 kmh 31.02 in1050.5 mb - 0.00 in0.0 mm 0.00 in0.0 mm
06:50 PM 2.9°F-16.2°C 0.9°F-17.3°C 91% 2.3 mph WNW3.7 kmh WNW 2.3 mph3.7 kmh 31.03 in1050.8 mb - 0.00 in0.0 mm 0.00 in0.0 mm
07:00 PM 2.9°F-16.2°C 0.9°F-17.3°C 91% Calm Calm -- 31.04 in1051.1 mb - 0.00 in0.0 mm 0.00 in0.0 mm
07:10 PM 2.4°F-16.4°C 0.4°F-17.6°C 91% Calm Calm -- 31.05 in1051.5 mb - 0.00 in0.0 mm 0.00 in0.0 mm
07:20 PM 2.1°F-16.6°C 0.1°F-17.7°C 91% Calm Calm -- 31.05 in1051.5 mb - 0.00 in0.0 mm 0.00 in0.0 mm
07:30 PM 1.5°F-16.9°C -0.5°F-18.1°C 91% 1.2 mph SW1.9 kmh SW 1.2 mph1.9 kmh 31.05 in1051.5 mb - 0.00 in0.0 mm 0.00 in0.0 mm
07:40 PM 0.9°F-17.3°C -1.1°F-18.4°C 91% Calm Calm -- 31.07 in1052.2 mb - 0.00 in0.0 mm 0.00 in0.0 mm
07:50 PM 1.0°F-17.2°C -1.0°F-18.3°C 91% 2.3 mph SW3.7 kmh SW 2.3 mph3.7 kmh 31.07 in1052.2 mb - 0.00 in0.0 mm 0.00 in0.0 mm
08:00 PM 1.1°F-17.2°C -0.9°F-18.3°C 91% 1.2 mph WSW1.9 kmh WSW 1.2 mph1.9 kmh 31.07 in1052.2 mb - 0.00 in0.0 mm 0.00 in0.0 mm
08:10 PM 0.4°F-17.6°C -1.6°F-18.7°C 91% Calm Calm -- 31.08 in1052.5 mb - 0.00 in0.0 mm 0.00 in0.0 mm
08:20 PM -0.8°F-18.2°C -2.7°F-19.3°C 91% Calm Calm -- 31.09 in1052.8 mb - 0.00 in0.0 mm 0.00 in0.0 mm
08:30 PM -1.3°F-18.5°C -3.2°F-19.6°C 91% Calm Calm -- 31.10 in1053.2 mb - 0.00 in0.0 mm 0.00 in0.0 mm
08:40 PM -1.3°F-18.5°C -3.3°F-19.6°C 91% 1.2 mph WSW1.9 kmh WSW 1.2 mph1.9 kmh 31.10 in1053.2 mb - 0.00 in0.0 mm 0.00 in0.0 mm
08:50 PM -1.1°F-18.4°C -3.1°F-19.5°C 91% 2.3 mph WSW3.7 kmh WSW 2.3 mph3.7 kmh 31.09 in1052.8 mb - 0.00 in0.0 mm 0.00 in0.0 mm
09:00 PM 0.1°F-17.7°C -1.9°F-18.8°C 91% Calm Calm -- 31.09 in1052.8 mb - 0.00 in0.0 mm 0.00 in0.0 mm
09:10 PM -0.1°F-17.8°C -2.1°F-18.9°C 91% 1.2 mph WSW1.9 kmh WSW -- 31.10 in1053.2 mb - 0.00 in0.0 mm 0.00 in0.0 mm
09:20 PM -0.7°F-18.2°C -2.7°F-19.3°C 91% Calm Calm -- 31.10 in1053.2 mb - 0.00 in0.0 mm 0.00 in0.0 mm
09:30 PM -1.3°F-18.5°C -3.2°F-19.6°C 91% 1.2 mph SW1.9 kmh SW 1.2 mph1.9 kmh 31.11 in1053.5 mb - 0.00 in0.0 mm 0.00 in0.0 mm
09:40 PM -0.5°F-18.1°C -2.5°F-19.2°C 91% Calm Calm 1.2 mph1.9 kmh 31.10 in1053.2 mb - 0.00 in0.0 mm 0.00 in0.0 mm
09:50 PM -0.7°F-18.2°C -2.7°F-19.3°C 91% 1.2 mph WSW1.9 kmh WSW 1.2 mph1.9 kmh 31.10 in1053.2 mb - 0.00 in0.0 mm 0.00 in0.0 mm
10:00 PM -0.5°F-18.1°C -2.5°F-19.2°C 91% 2.3 mph WSW3.7 kmh WSW 1.2 mph1.9 kmh 31.10 in1053.2 mb - 0.00 in0.0 mm 0.00 in0.0 mm
10:10 PM -0.3°F-17.9°C -2.3°F-19.1°C 91% 2.3 mph WSW3.7 kmh WSW 2.3 mph3.7 kmh 31.10 in1053.2 mb - 0.00 in0.0 mm 0.00 in0.0 mm
10:20 PM 0.4°F-17.6°C -1.6°F-18.7°C 91% 1.2 mph WSW1.9 kmh WSW 1.2 mph1.9 kmh 31.11 in1053.5 mb - 0.00 in0.0 mm 0.00 in0.0 mm
10:30 PM 0.2°F-17.7°C -1.8°F-18.8°C 91% Calm Calm -- 31.12 in1053.8 mb - 0.00 in0.0 mm 0.00 in0.0 mm
10:40 PM -0.1°F-17.8°C -2.1°F-18.9°C 91% 1.2 mph WSW1.9 kmh WSW 1.2 mph1.9 kmh 31.12 in1053.8 mb - 0.00 in0.0 mm 0.00 in0.0 mm
10:50 PM -0.2°F-17.9°C -2.2°F-19.0°C 91% 1.2 mph WNW1.9 kmh WNW 1.2 mph1.9 kmh 31.12 in1053.8 mb - 0.00 in0.0 mm 0.00 in0.0 mm
11:00 PM -0.3°F-17.9°C -2.3°F-19.1°C 91% Calm Calm -- 31.12 in1053.8 mb - 0.00 in0.0 mm 0.00 in0.0 mm
11:10 PM -0.7°F-18.2°C -2.7°F-19.3°C 91% Calm Calm 1.2 mph1.9 kmh 31.12 in1053.8 mb - 0.00 in0.0 mm 0.00 in0.0 mm
11:20 PM -0.6°F-18.1°C -2.6°F-19.2°C 91% 1.2 mph W1.9 kmh W 1.2 mph1.9 kmh 31.12 in1053.8 mb - 0.00 in0.0 mm 0.00 in0.0 mm
11:30 PM -0.2°F-17.9°C -2.2°F-19.0°C 91% 1.2 mph WSW1.9 kmh WSW 2.3 mph3.7 kmh 31.12 in1053.8 mb - 0.00 in0.0 mm 0.00 in0.0 mm
11:40 PM -0.1°F-17.8°C -2.1°F-18.9°C 91% 2.3 mph W3.7 kmh W 2.3 mph3.7 kmh 31.12 in1053.8 mb - 0.00 in0.0 mm 0.00 in0.0 mm
11:50 PM 0.5°F-17.5°C -1.5°F-18.6°C 91% 2.3 mph NW3.7 kmh NW 2.3 mph3.7 kmh 31.12 in1053.8 mb - 0.00 in0.0 mm 0.00 in0.0 mm